sensor_id;sensor_type;location;lat;lon;timestamp;P1;durP1;ratioP1;P2;durP2;ratioP2
72053;SDS011;59918;51.280;7.950;2022-12-26T00:00:09;5.38;;;4.60;;
72053;SDS011;59918;51.280;7.950;2022-12-26T00:02:35;8.73;;;4.75;;
72053;SDS011;59918;51.280;7.950;2022-12-26T00:05:00;11.55;;;5.35;;
72053;SDS011;59918;51.280;7.950;2022-12-26T00:07:25;6.25;;;4.97;;
72053;SDS011;59918;51.280;7.950;2022-12-26T00:09:50;6.97;;;4.72;;
72053;SDS011;59918;51.280;7.950;2022-12-26T00:12:15;7.22;;;4.53;;
72053;SDS011;59918;51.280;7.950;2022-12-26T00:14:41;10.82;;;4.85;;
72053;SDS011;59918;51.280;7.950;2022-12-26T00:17:06;4.70;;;4.30;;
72053;SDS011;59918;51.280;7.950;2022-12-26T00:19:31;6.93;;;4.43;;
72053;SDS011;59918;51.280;7.950;2022-12-26T00:21:56;6.72;;;4.15;;
72053;SDS011;59918;51.280;7.950;2022-12-26T00:24:22;6.32;;;3.65;;
72053;SDS011;59918;51.280;7.950;2022-12-26T00:26:47;4.38;;;3.85;;
72053;SDS011;59918;51.280;7.950;2022-12-26T00:29:12;5.90;;;4.00;;
72053;SDS011;59918;51.280;7.950;2022-12-26T00:31:37;4.63;;;3.88;;
72053;SDS011;59918;51.280;7.950;2022-12-26T00:34:03;5.88;;;3.88;;
72053;SDS011;59918;51.280;7.950;2022-12-26T00:36:29;3.83;;;3.33;;
72053;SDS011;59918;51.280;7.950;2022-12-26T00:38:57;4.22;;;3.85;;
72053;SDS011;59918;51.280;7.950;2022-12-26T00:41:23;3.88;;;3.53;;
72053;SDS011;59918;51.280;7.950;2022-12-26T00:43:49;4.55;;;3.85;;
72053;SDS011;59918;51.280;7.950;2022-12-26T00:46:14;6.88;;;4.75;;
72053;SDS011;59918;51.280;7.950;2022-12-26T00:48:41;7.57;;;4.93;;
72053;SDS011;59918;51.280;7.950;2022-12-26T00:51:06;4.47;;;3.53;;
72053;SDS011;59918;51.280;7.950;2022-12-26T00:53:31;5.97;;;4.05;;
72053;SDS011;59918;51.280;7.950;2022-12-26T00:55:57;4.57;;;3.58;;
72053;SDS011;59918;51.280;7.950;2022-12-26T00:58:22;4.53;;;3.92;;
72053;SDS011;59918;51.280;7.950;2022-12-26T01:00:50;4.22;;;3.67;;
72053;SDS011;59918;51.280;7.950;2022-12-26T01:03:16;6.05;;;3.60;;
72053;SDS011;59918;51.280;7.950;2022-12-26T01:05:42;4.55;;;3.30;;
72053;SDS011;59918;51.280;7.950;2022-12-26T01:08:09;5.72;;;3.78;;
72053;SDS011;59918;51.280;7.950;2022-12-26T01:10:39;5.32;;;3.70;;
72053;SDS011;59918;51.280;7.950;2022-12-26T01:13:05;3.97;;;3.58;;
72053;SDS011;59918;51.280;7.950;2022-12-26T01:15:31;3.63;;;3.33;;
72053;SDS011;59918;51.280;7.950;2022-12-26T01:17:59;5.72;;;3.50;;
72053;SDS011;59918;51.280;7.950;2022-12-26T01:20:26;4.78;;;3.42;;
72053;SDS011;59918;51.280;7.950;2022-12-26T01:22:51;3.50;;;3.20;;
72053;SDS011;59918;51.280;7.950;2022-12-26T01:25:18;4.47;;;3.25;;
72053;SDS011;59918;51.280;7.950;2022-12-26T01:27:43;4.68;;;3.60;;
72053;SDS011;59918;51.280;7.950;2022-12-26T01:30:09;7.03;;;3.58;;
72053;SDS011;59918;51.280;7.950;2022-12-26T01:32:34;5.68;;;3.67;;
72053;SDS011;59918;51.280;7.950;2022-12-26T01:34:59;5.95;;;3.65;;
72053;SDS011;59918;51.280;7.950;2022-12-26T01:37:25;4.20;;;3.75;;
72053;SDS011;59918;51.280;7.950;2022-12-26T01:39:50;4.53;;;3.53;;
72053;SDS011;59918;51.280;7.950;2022-12-26T01:42:16;4.85;;;3.78;;
72053;SDS011;59918;51.280;7.950;2022-12-26T01:50:17;4.07;;;3.78;;
72053;SDS011;59918;51.280;7.950;2022-12-26T01:53:02;5.03;;;3.05;;
72053;SDS011;59918;51.280;7.950;2022-12-26T01:55:34;5.28;;;2.97;;
72053;SDS011;59918;51.280;7.950;2022-12-26T01:58:02;5.50;;;3.30;;
72053;SDS011;59918;51.280;7.950;2022-12-26T02:00:32;4.30;;;2.65;;
72053;SDS011;59918;51.280;7.950;2022-12-26T02:02:58;4.95;;;2.90;;
72053;SDS011;59918;51.280;7.950;2022-12-26T02:05:24;4.18;;;2.90;;
72053;SDS011;59918;51.280;7.950;2022-12-26T02:07:51;5.13;;;3.17;;
72053;SDS011;59918;51.280;7.950;2022-12-26T02:10:19;5.82;;;3.00;;
72053;SDS011;59918;51.280;7.950;2022-12-26T02:12:49;2.80;;;2.50;;
72053;SDS011;59918;51.280;7.950;2022-12-26T02:15:15;3.83;;;2.55;;
72053;SDS011;59918;51.280;7.950;2022-12-26T02:17:41;2.30;;;2.15;;
72053;SDS011;59918;51.280;7.950;2022-12-26T02:22:54;4.03;;;2.35;;
72053;SDS011;59918;51.280;7.950;2022-12-26T02:31:19;2.63;;;2.42;;
72053;SDS011;59918;51.280;7.950;2022-12-26T02:45:08;4.38;;;2.63;;
72053;SDS011;59918;51.280;7.950;2022-12-26T02:55:49;3.53;;;2.22;;
72053;SDS011;59918;51.280;7.950;2022-12-26T02:58:23;6.65;;;2.90;;
72053;SDS011;59918;51.280;7.950;2022-12-26T03:00:57;3.83;;;2.65;;
72053;SDS011;59918;51.280;7.950;2022-12-26T03:03:27;5.85;;;2.67;;
72053;SDS011;59918;51.280;7.950;2022-12-26T03:06:00;4.43;;;2.58;;
72053;SDS011;59918;51.280;7.950;2022-12-26T03:08:34;3.72;;;2.28;;
72053;SDS011;59918;51.280;7.950;2022-12-26T03:11:02;5.03;;;2.47;;
72053;SDS011;59918;51.280;7.950;2022-12-26T03:13:29;3.30;;;2.30;;
72053;SDS011;59918;51.280;7.950;2022-12-26T03:16:01;3.72;;;2.00;;
72053;SDS011;59918;51.280;7.950;2022-12-26T03:18:29;2.20;;;2.00;;
72053;SDS011;59918;51.280;7.950;2022-12-26T03:20:56;4.22;;;2.10;;
72053;SDS011;59918;51.280;7.950;2022-12-26T03:23:23;4.80;;;2.60;;
72053;SDS011;59918;51.280;7.950;2022-12-26T03:25:56;3.80;;;1.95;;
72053;SDS011;59918;51.280;7.950;2022-12-26T03:28:23;8.32;;;2.83;;
72053;SDS011;59918;51.280;7.950;2022-12-26T03:30:50;2.55;;;2.17;;
72053;SDS011;59918;51.280;7.950;2022-12-26T03:35:44;3.78;;;2.55;;
72053;SDS011;59918;51.280;7.950;2022-12-26T03:38:10;4.25;;;2.40;;
72053;SDS011;59918;51.280;7.950;2022-12-26T03:40:39;4.72;;;2.45;;
72053;SDS011;59918;51.280;7.950;2022-12-26T03:43:24;3.63;;;2.50;;
72053;SDS011;59918;51.280;7.950;2022-12-26T03:48:43;4.90;;;2.33;;
72053;SDS011;59918;51.280;7.950;2022-12-26T03:51:37;4.68;;;2.45;;
72053;SDS011;59918;51.280;7.950;2022-12-26T03:54:10;2.78;;;1.42;;
72053;SDS011;59918;51.280;7.950;2022-12-26T03:56:46;4.78;;;1.27;;
72053;SDS011;59918;51.280;7.950;2022-12-26T03:59:21;1.52;;;1.00;;
72053;SDS011;59918;51.280;7.950;2022-12-26T04:02:03;1.65;;;1.55;;
72053;SDS011;59918;51.280;7.950;2022-12-26T04:04:31;1.85;;;0.77;;
72053;SDS011;59918;51.280;7.950;2022-12-26T04:07:07;1.17;;;1.00;;
72053;SDS011;59918;51.280;7.950;2022-12-26T04:09:45;2.47;;;1.30;;
72053;SDS011;59918;51.280;7.950;2022-12-26T04:12:15;1.45;;;1.23;;
72053;SDS011;59918;51.280;7.950;2022-12-26T04:23:03;1.33;;;1.23;;
72053;SDS011;59918;51.280;7.950;2022-12-26T04:25:35;2.08;;;1.80;;
72053;SDS011;59918;51.280;7.950;2022-12-26T04:28:08;2.03;;;1.70;;
72053;SDS011;59918;51.280;7.950;2022-12-26T04:30:33;2.15;;;1.92;;
72053;SDS011;59918;51.280;7.950;2022-12-26T04:33:24;7.88;;;1.90;;
72053;SDS011;59918;51.280;7.950;2022-12-26T04:35:58;3.90;;;2.50;;
72053;SDS011;59918;51.280;7.950;2022-12-26T04:38:30;2.63;;;2.42;;
72053;SDS011;59918;51.280;7.950;2022-12-26T04:41:02;3.83;;;2.70;;
72053;SDS011;59918;51.280;7.950;2022-12-26T04:43:28;8.88;;;3.00;;
72053;SDS011;59918;51.280;7.950;2022-12-26T04:45:54;3.65;;;2.30;;
72053;SDS011;59918;51.280;7.950;2022-12-26T04:48:20;4.35;;;2.70;;
72053;SDS011;59918;51.280;7.950;2022-12-26T04:50:51;2.78;;;2.33;;
72053;SDS011;59918;51.280;7.950;2022-12-26T04:53:17;3.63;;;2.60;;
72053;SDS011;59918;51.280;7.950;2022-12-26T04:55:44;3.90;;;1.90;;
72053;SDS011;59918;51.280;7.950;2022-12-26T04:58:10;1.98;;;1.88;;
72053;SDS011;59918;51.280;7.950;2022-12-26T05:00:38;4.22;;;1.92;;
72053;SDS011;59918;51.280;7.950;2022-12-26T05:03:03;2.22;;;1.88;;
72053;SDS011;59918;51.280;7.950;2022-12-26T05:05:30;2.45;;;1.67;;
72053;SDS011;59918;51.280;7.950;2022-12-26T05:07:59;3.15;;;1.40;;
72053;SDS011;59918;51.280;7.950;2022-12-26T05:10:25;1.40;;;1.30;;
72053;SDS011;59918;51.280;7.950;2022-12-26T05:12:51;1.83;;;1.50;;
72053;SDS011;59918;51.280;7.950;2022-12-26T05:15:17;1.52;;;1.20;;
72053;SDS011;59918;51.280;7.950;2022-12-26T05:17:42;2.45;;;1.42;;
72053;SDS011;59918;51.280;7.950;2022-12-26T05:20:09;1.73;;;1.50;;
72053;SDS011;59918;51.280;7.950;2022-12-26T05:22:37;2.20;;;1.77;;
72053;SDS011;59918;51.280;7.950;2022-12-26T05:25:08;2.40;;;1.80;;
72053;SDS011;59918;51.280;7.950;2022-12-26T05:27:40;2.58;;;2.00;;
72053;SDS011;59918;51.280;7.950;2022-12-26T05:30:07;2.60;;;2.40;;
72053;SDS011;59918;51.280;7.950;2022-12-26T05:32:33;3.45;;;2.40;;
72053;SDS011;59918;51.280;7.950;2022-12-26T05:34:58;3.08;;;2.78;;
72053;SDS011;59918;51.280;7.950;2022-12-26T05:37:23;4.38;;;3.22;;
72053;SDS011;59918;51.280;7.950;2022-12-26T05:39:49;4.93;;;3.00;;
72053;SDS011;59918;51.280;7.950;2022-12-26T05:42:14;4.18;;;3.78;;
72053;SDS011;59918;51.280;7.950;2022-12-26T05:44:39;5.47;;;3.35;;
72053;SDS011;59918;51.280;7.950;2022-12-26T05:47:04;3.75;;;3.25;;
72053;SDS011;59918;51.280;7.950;2022-12-26T05:49:30;4.75;;;3.65;;
72053;SDS011;59918;51.280;7.950;2022-12-26T05:51:55;3.55;;;3.25;;
72053;SDS011;59918;51.280;7.950;2022-12-26T05:54:20;4.55;;;3.67;;
72053;SDS011;59918;51.280;7.950;2022-12-26T05:56:45;4.75;;;3.85;;
72053;SDS011;59918;51.280;7.950;2022-12-26T05:59:10;4.43;;;3.90;;
72053;SDS011;59918;51.280;7.950;2022-12-26T06:01:36;4.28;;;3.70;;
72053;SDS011;59918;51.280;7.950;2022-12-26T06:04:01;5.68;;;4.13;;
72053;SDS011;59918;51.280;7.950;2022-12-26T06:06:26;4.60;;;4.03;;
72053;SDS011;59918;51.280;7.950;2022-12-26T06:08:53;5.57;;;4.35;;
72053;SDS011;59918;51.280;7.950;2022-12-26T06:11:20;5.53;;;4.40;;
72053;SDS011;59918;51.280;7.950;2022-12-26T06:13:46;8.75;;;4.72;;
72053;SDS011;59918;51.280;7.950;2022-12-26T06:16:12;4.45;;;4.05;;
72053;SDS011;59918;51.280;7.950;2022-12-26T06:18:39;4.45;;;3.75;;
72053;SDS011;59918;51.280;7.950;2022-12-26T06:21:09;5.85;;;4.65;;
72053;SDS011;59918;51.280;7.950;2022-12-26T06:23:36;5.32;;;4.68;;
72053;SDS011;59918;51.280;7.950;2022-12-26T06:26:02;7.18;;;5.38;;
72053;SDS011;59918;51.280;7.950;2022-12-26T06:28:28;22.30;;;6.05;;
72053;SDS011;59918;51.280;7.950;2022-12-26T06:30:59;6.30;;;5.20;;
72053;SDS011;59918;51.280;7.950;2022-12-26T06:33:29;8.35;;;5.55;;
72053;SDS011;59918;51.280;7.950;2022-12-26T06:35:54;10.02;;;6.05;;
72053;SDS011;59918;51.280;7.950;2022-12-26T06:38:19;8.30;;;5.50;;
72053;SDS011;59918;51.280;7.950;2022-12-26T06:40:44;7.43;;;5.38;;
72053;SDS011;59918;51.280;7.950;2022-12-26T06:43:10;11.75;;;6.75;;
72053;SDS011;59918;51.280;7.950;2022-12-26T06:45:35;10.27;;;6.38;;
72053;SDS011;59918;51.280;7.950;2022-12-26T06:48:00;12.45;;;7.43;;
72053;SDS011;59918;51.280;7.950;2022-12-26T06:50:26;9.50;;;5.85;;
72053;SDS011;59918;51.280;7.950;2022-12-26T06:52:52;8.30;;;5.47;;
72053;SDS011;59918;51.280;7.950;2022-12-26T06:55:17;8.55;;;5.78;;
72053;SDS011;59918;51.280;7.950;2022-12-26T06:57:42;5.93;;;4.75;;
72053;SDS011;59918;51.280;7.950;2022-12-26T07:00:08;6.45;;;5.15;;
72053;SDS011;59918;51.280;7.950;2022-12-26T07:02:33;6.22;;;4.93;;
72053;SDS011;59918;51.280;7.950;2022-12-26T07:04:59;5.90;;;4.32;;
72053;SDS011;59918;51.280;7.950;2022-12-26T07:07:24;4.65;;;4.25;;
72053;SDS011;59918;51.280;7.950;2022-12-26T07:09:49;6.38;;;3.88;;
72053;SDS011;59918;51.280;7.950;2022-12-26T07:12:14;3.55;;;3.25;;
72053;SDS011;59918;51.280;7.950;2022-12-26T07:14:40;3.65;;;3.30;;
72053;SDS011;59918;51.280;7.950;2022-12-26T07:17:05;4.22;;;3.50;;
72053;SDS011;59918;51.280;7.950;2022-12-26T07:19:30;3.10;;;2.50;;
72053;SDS011;59918;51.280;7.950;2022-12-26T07:21:55;2.85;;;2.22;;
72053;SDS011;59918;51.280;7.950;2022-12-26T07:24:21;2.13;;;2.03;;
72053;SDS011;59918;51.280;7.950;2022-12-26T07:26:46;2.63;;;2.42;;
72053;SDS011;59918;51.280;7.950;2022-12-26T07:29:13;2.20;;;2.10;;
72053;SDS011;59918;51.280;7.950;2022-12-26T07:31:39;2.00;;;1.70;;
72053;SDS011;59918;51.280;7.950;2022-12-26T07:34:05;1.70;;;1.52;;
72053;SDS011;59918;51.280;7.950;2022-12-26T07:36:30;10.73;;;7.78;;
72053;SDS011;59918;51.280;7.950;2022-12-26T07:38:56;2.10;;;2.00;;
72053;SDS011;59918;51.280;7.950;2022-12-26T07:41:21;10.57;;;8.52;;
72053;SDS011;59918;51.280;7.950;2022-12-26T07:43:46;3.33;;;1.77;;
72053;SDS011;59918;51.280;7.950;2022-12-26T07:46:12;3.42;;;3.22;;
72053;SDS011;59918;51.280;7.950;2022-12-26T07:48:37;1.42;;;1.33;;
72053;SDS011;59918;51.280;7.950;2022-12-26T07:51:02;2.55;;;1.90;;
72053;SDS011;59918;51.280;7.950;2022-12-26T07:53:28;2.97;;;2.40;;
72053;SDS011;59918;51.280;7.950;2022-12-26T07:55:57;1.50;;;1.40;;
72053;SDS011;59918;51.280;7.950;2022-12-26T07:58:22;1.75;;;1.65;;
72053;SDS011;59918;51.280;7.950;2022-12-26T08:00:48;1.98;;;1.30;;
72053;SDS011;59918;51.280;7.950;2022-12-26T08:03:13;5.93;;;2.78;;
72053;SDS011;59918;51.280;7.950;2022-12-26T08:05:38;3.00;;;2.50;;
72053;SDS011;59918;51.280;7.950;2022-12-26T08:08:03;4.60;;;4.28;;
72053;SDS011;59918;51.280;7.950;2022-12-26T08:10:29;3.38;;;2.53;;
72053;SDS011;59918;51.280;7.950;2022-12-26T08:12:54;12.07;;;10.88;;
72053;SDS011;59918;51.280;7.950;2022-12-26T08:15:19;3.65;;;1.60;;
72053;SDS011;59918;51.280;7.950;2022-12-26T08:17:44;2.08;;;1.88;;
72053;SDS011;59918;51.280;7.950;2022-12-26T08:20:09;2.03;;;1.67;;
72053;SDS011;59918;51.280;7.950;2022-12-26T08:22:35;2.17;;;1.70;;
72053;SDS011;59918;51.280;7.950;2022-12-26T08:25:00;7.40;;;4.00;;
72053;SDS011;59918;51.280;7.950;2022-12-26T08:27:25;2.60;;;2.28;;
72053;SDS011;59918;51.280;7.950;2022-12-26T08:29:50;2.28;;;2.10;;
72053;SDS011;59918;51.280;7.950;2022-12-26T08:32:16;3.13;;;2.78;;
72053;SDS011;59918;51.280;7.950;2022-12-26T08:34:41;2.13;;;1.92;;
72053;SDS011;59918;51.280;7.950;2022-12-26T08:37:06;3.90;;;2.63;;
72053;SDS011;59918;51.280;7.950;2022-12-26T08:39:31;2.47;;;2.20;;
72053;SDS011;59918;51.280;7.950;2022-12-26T08:41:57;2.22;;;1.70;;
72053;SDS011;59918;51.280;7.950;2022-12-26T08:44:22;3.30;;;1.50;;
72053;SDS011;59918;51.280;7.950;2022-12-26T08:46:47;1.45;;;1.35;;
72053;SDS011;59918;51.280;7.950;2022-12-26T08:49:12;1.60;;;1.50;;
72053;SDS011;59918;51.280;7.950;2022-12-26T08:51:38;1.95;;;1.38;;
72053;SDS011;59918;51.280;7.950;2022-12-26T08:54:03;2.08;;;1.30;;
72053;SDS011;59918;51.280;7.950;2022-12-26T08:56:29;1.27;;;1.17;;
72053;SDS011;59918;51.280;7.950;2022-12-26T08:58:54;1.33;;;1.23;;
72053;SDS011;59918;51.280;7.950;2022-12-26T09:01:21;1.98;;;1.48;;
72053;SDS011;59918;51.280;7.950;2022-12-26T09:03:50;2.17;;;1.50;;
72053;SDS011;59918;51.280;7.950;2022-12-26T09:06:16;2.05;;;1.95;;
72053;SDS011;59918;51.280;7.950;2022-12-26T09:08:42;2.17;;;2.08;;
72053;SDS011;59918;51.280;7.950;2022-12-26T09:11:08;2.55;;;2.30;;
72053;SDS011;59918;51.280;7.950;2022-12-26T09:13:36;2.95;;;2.45;;
72053;SDS011;59918;51.280;7.950;2022-12-26T09:18:33;2.78;;;2.58;;
72053;SDS011;59918;51.280;7.950;2022-12-26T09:20:59;3.08;;;2.78;;
72053;SDS011;59918;51.280;7.950;2022-12-26T09:23:26;6.28;;;3.20;;
72053;SDS011;59918;51.280;7.950;2022-12-26T09:25:51;6.00;;;3.50;;
72053;SDS011;59918;51.280;7.950;2022-12-26T09:28:17;5.53;;;3.28;;
72053;SDS011;59918;51.280;7.950;2022-12-26T09:30:42;8.20;;;3.83;;
72053;SDS011;59918;51.280;7.950;2022-12-26T09:33:07;4.13;;;3.80;;
72053;SDS011;59918;51.280;7.950;2022-12-26T09:35:32;6.13;;;4.28;;
72053;SDS011;59918;51.280;7.950;2022-12-26T09:37:58;5.63;;;4.40;;
72053;SDS011;59918;51.280;7.950;2022-12-26T09:40:25;5.80;;;4.38;;
72053;SDS011;59918;51.280;7.950;2022-12-26T09:45:54;7.35;;;5.93;;
72053;SDS011;59918;51.280;7.950;2022-12-26T09:48:31;10.30;;;7.47;;
72053;SDS011;59918;51.280;7.950;2022-12-26T09:51:01;7.40;;;6.22;;
72053;SDS011;59918;51.280;7.950;2022-12-26T09:56:03;6.53;;;4.75;;
72053;SDS011;59918;51.280;7.950;2022-12-26T09:58:34;5.53;;;5.00;;
72053;SDS011;59918;51.280;7.950;2022-12-26T10:01:08;5.15;;;4.65;;
72053;SDS011;59918;51.280;7.950;2022-12-26T10:03:36;5.38;;;4.88;;
72053;SDS011;59918;51.280;7.950;2022-12-26T10:14:34;6.05;;;4.38;;
72053;SDS011;59918;51.280;7.950;2022-12-26T10:20:16;6.18;;;4.70;;
72053;SDS011;59918;51.280;7.950;2022-12-26T10:25:02;5.50;;;3.70;;
72053;SDS011;59918;51.280;7.950;2022-12-26T10:27:37;4.13;;;3.85;;
72053;SDS011;59918;51.280;7.950;2022-12-26T10:30:05;3.65;;;3.15;;
72053;SDS011;59918;51.280;7.950;2022-12-26T10:32:42;3.97;;;3.58;;
72053;SDS011;59918;51.280;7.950;2022-12-26T10:35:18;4.10;;;3.25;;
72053;SDS011;59918;51.280;7.950;2022-12-26T10:37:47;3.80;;;3.50;;
72053;SDS011;59918;51.280;7.950;2022-12-26T10:42:53;5.88;;;2.70;;
72053;SDS011;59918;51.280;7.950;2022-12-26T10:45:29;3.40;;;2.80;;
72053;SDS011;59918;51.280;7.950;2022-12-26T10:48:02;2.58;;;2.38;;
72053;SDS011;59918;51.280;7.950;2022-12-26T10:50:28;2.28;;;2.05;;
72053;SDS011;59918;51.280;7.950;2022-12-26T10:52:56;2.40;;;1.73;;
72053;SDS011;59918;51.280;7.950;2022-12-26T10:55:31;5.13;;;2.08;;
72053;SDS011;59918;51.280;7.950;2022-12-26T10:57:59;2.75;;;1.45;;
72053;SDS011;59918;51.280;7.950;2022-12-26T11:00:29;1.90;;;1.63;;
72053;SDS011;59918;51.280;7.950;2022-12-26T11:03:00;2.55;;;2.28;;
72053;SDS011;59918;51.280;7.950;2022-12-26T11:05:30;4.25;;;2.42;;
72053;SDS011;59918;51.280;7.950;2022-12-26T11:08:05;2.30;;;2.10;;
72053;SDS011;59918;51.280;7.950;2022-12-26T11:10:31;6.03;;;2.50;;
72053;SDS011;59918;51.280;7.950;2022-12-26T11:13:00;5.75;;;3.13;;
72053;SDS011;59918;51.280;7.950;2022-12-26T11:16:12;3.63;;;2.58;;
72053;SDS011;59918;51.280;7.950;2022-12-26T11:18:19;2.70;;;2.50;;
72053;SDS011;59918;51.280;7.950;2022-12-26T11:20:51;3.60;;;2.08;;
72053;SDS011;59918;51.280;7.950;2022-12-26T11:25:47;4.45;;;2.00;;
72053;SDS011;59918;51.280;7.950;2022-12-26T11:28:24;1.70;;;1.60;;
72053;SDS011;59918;51.280;7.950;2022-12-26T11:30:53;2.38;;;2.22;;
72053;SDS011;59918;51.280;7.950;2022-12-26T11:33:23;4.90;;;1.58;;
72053;SDS011;59918;51.280;7.950;2022-12-26T11:38:28;2.05;;;1.73;;
72053;SDS011;59918;51.280;7.950;2022-12-26T11:40:56;1.90;;;1.80;;
72053;SDS011;59918;51.280;7.950;2022-12-26T11:43:21;2.70;;;2.25;;
72053;SDS011;59918;51.280;7.950;2022-12-26T11:45:48;2.65;;;1.92;;
72053;SDS011;59918;51.280;7.950;2022-12-26T11:56:58;4.22;;;2.22;;
72053;SDS011;59918;51.280;7.950;2022-12-26T11:59:31;3.47;;;1.75;;
72053;SDS011;59918;51.280;7.950;2022-12-26T12:02:20;1.80;;;1.70;;
72053;SDS011;59918;51.280;7.950;2022-12-26T12:04:54;3.72;;;1.77;;
72053;SDS011;59918;51.280;7.950;2022-12-26T12:13:03;2.03;;;1.42;;
72053;SDS011;59918;51.280;7.950;2022-12-26T12:21:11;1.58;;;1.48;;
72053;SDS011;59918;51.280;7.950;2022-12-26T12:48:48;3.38;;;3.08;;
72053;SDS011;59918;51.280;7.950;2022-12-26T13:01:54;6.20;;;1.92;;
72053;SDS011;59918;51.280;7.950;2022-12-26T13:04:33;3.00;;;2.20;;
72053;SDS011;59918;51.280;7.950;2022-12-26T13:07:05;2.30;;;1.80;;
72053;SDS011;59918;51.280;7.950;2022-12-26T13:09:46;3.00;;;2.15;;
72053;SDS011;59918;51.280;7.950;2022-12-26T13:12:20;4.63;;;2.83;;
72053;SDS011;59918;51.280;7.950;2022-12-26T13:18:07;4.70;;;2.10;;
72053;SDS011;59918;51.280;7.950;2022-12-26T13:20:57;3.70;;;1.90;;
72053;SDS011;59918;51.280;7.950;2022-12-26T13:23:32;5.05;;;1.60;;
72053;SDS011;59918;51.280;7.950;2022-12-26T13:26:07;3.03;;;1.80;;
72053;SDS011;59918;51.280;7.950;2022-12-26T13:28:44;6.47;;;2.10;;
72053;SDS011;59918;51.280;7.950;2022-12-26T13:31:32;6.97;;;1.73;;
72053;SDS011;59918;51.280;7.950;2022-12-26T13:33:59;2.10;;;1.92;;
72053;SDS011;59918;51.280;7.950;2022-12-26T13:36:33;6.60;;;2.40;;
72053;SDS011;59918;51.280;7.950;2022-12-26T13:41:49;5.95;;;2.80;;
72053;SDS011;59918;51.280;7.950;2022-12-26T13:44:29;5.05;;;1.90;;
72053;SDS011;59918;51.280;7.950;2022-12-26T13:46:55;1.70;;;1.60;;
72053;SDS011;59918;51.280;7.950;2022-12-26T13:49:26;2.72;;;1.60;;
72053;SDS011;59918;51.280;7.950;2022-12-26T13:51:55;1.48;;;1.25;;
72053;SDS011;59918;51.280;7.950;2022-12-26T13:54:22;1.35;;;1.02;;
72053;SDS011;59918;51.280;7.950;2022-12-26T14:05:23;2.08;;;1.58;;
72053;SDS011;59918;51.280;7.950;2022-12-26T14:07:58;1.83;;;1.45;;
72053;SDS011;59918;51.280;7.950;2022-12-26T14:10:32;1.70;;;1.15;;
72053;SDS011;59918;51.280;7.950;2022-12-26T14:18:57;2.25;;;1.13;;
72053;SDS011;59918;51.280;7.950;2022-12-26T14:24:22;1.25;;;1.10;;
72053;SDS011;59918;51.280;7.950;2022-12-26T14:41:11;3.42;;;1.30;;
72053;SDS011;59918;51.280;7.950;2022-12-26T14:43:42;2.38;;;2.20;;
72053;SDS011;59918;51.280;7.950;2022-12-26T14:48:56;3.05;;;2.85;;
72053;SDS011;59918;51.280;7.950;2022-12-26T14:51:30;9.20;;;3.63;;
72053;SDS011;59918;51.280;7.950;2022-12-26T14:56:47;7.47;;;2.90;;
72053;SDS011;59918;51.280;7.950;2022-12-26T15:04:48;6.35;;;4.13;;
72053;SDS011;59918;51.280;7.950;2022-12-26T15:07:37;4.97;;;2.50;;
72053;SDS011;59918;51.280;7.950;2022-12-26T15:24:33;9.38;;;3.90;;
72053;SDS011;59918;51.280;7.950;2022-12-26T15:27:10;5.88;;;2.20;;
72053;SDS011;59918;51.280;7.950;2022-12-26T15:32:44;4.97;;;3.37;;
72053;SDS011;59918;51.280;7.950;2022-12-26T15:44:05;8.82;;;3.22;;
72053;SDS011;59918;51.280;7.950;2022-12-26T15:46:42;6.25;;;3.38;;
72053;SDS011;59918;51.280;7.950;2022-12-26T15:57:38;5.40;;;3.38;;
72053;SDS011;59918;51.280;7.950;2022-12-26T16:00:22;7.35;;;4.70;;
72053;SDS011;59918;51.280;7.950;2022-12-26T16:06:00;8.52;;;5.80;;
72053;SDS011;59918;51.280;7.950;2022-12-26T16:11:23;9.07;;;3.83;;
72053;SDS011;59918;51.280;7.950;2022-12-26T16:14:09;6.70;;;4.90;;
72053;SDS011;59918;51.280;7.950;2022-12-26T16:16:47;4.97;;;3.50;;
72053;SDS011;59918;51.280;7.950;2022-12-26T16:19:22;10.27;;;5.00;;
72053;SDS011;59918;51.280;7.950;2022-12-26T16:21:55;12.50;;;6.75;;
72053;SDS011;59918;51.280;7.950;2022-12-26T16:24:25;14.57;;;7.60;;
72053;SDS011;59918;51.280;7.950;2022-12-26T16:26:58;13.68;;;8.30;;
72053;SDS011;59918;51.280;7.950;2022-12-26T16:29:31;15.70;;;10.85;;
72053;SDS011;59918;51.280;7.950;2022-12-26T16:32:07;17.20;;;9.70;;
72053;SDS011;59918;51.280;7.950;2022-12-26T16:34:41;32.10;;;15.90;;
72053;SDS011;59918;51.280;7.950;2022-12-26T16:37:07;21.25;;;12.65;;
72053;SDS011;59918;51.280;7.950;2022-12-26T16:39:41;18.30;;;11.60;;
72053;SDS011;59918;51.280;7.950;2022-12-26T16:42:08;26.80;;;12.73;;
72053;SDS011;59918;51.280;7.950;2022-12-26T16:44:55;27.27;;;13.40;;
72053;SDS011;59918;51.280;7.950;2022-12-26T16:47:21;29.08;;;13.80;;
72053;SDS011;59918;51.280;7.950;2022-12-26T16:49:47;23.67;;;13.05;;
72053;SDS011;59918;51.280;7.950;2022-12-26T16:52:35;22.10;;;12.63;;
72053;SDS011;59918;51.280;7.950;2022-12-26T16:57:46;24.77;;;14.10;;
72053;SDS011;59918;51.280;7.950;2022-12-26T17:00:18;28.90;;;14.95;;
72053;SDS011;59918;51.280;7.950;2022-12-26T17:02:45;27.90;;;14.48;;
72053;SDS011;59918;51.280;7.950;2022-12-26T17:08:11;16.55;;;9.95;;
72053;SDS011;59918;51.280;7.950;2022-12-26T17:10:45;20.13;;;10.07;;
72053;SDS011;59918;51.280;7.950;2022-12-26T17:13:20;21.05;;;12.00;;
72053;SDS011;59918;51.280;7.950;2022-12-26T17:15:55;23.02;;;10.55;;
72053;SDS011;59918;51.280;7.950;2022-12-26T17:21:32;17.63;;;10.93;;
72053;SDS011;59918;51.280;7.950;2022-12-26T17:26:47;15.48;;;9.38;;
72053;SDS011;59918;51.280;7.950;2022-12-26T17:29:33;18.58;;;9.27;;
72053;SDS011;59918;51.280;7.950;2022-12-26T17:32:00;10.95;;;6.55;;
72053;SDS011;59918;51.280;7.950;2022-12-26T17:34:31;6.95;;;5.28;;
72053;SDS011;59918;51.280;7.950;2022-12-26T17:37:00;10.20;;;6.97;;
72053;SDS011;59918;51.280;7.950;2022-12-26T17:39:43;13.40;;;6.78;;
72053;SDS011;59918;51.280;7.950;2022-12-26T17:42:54;7.95;;;4.13;;
72053;SDS011;59918;51.280;7.950;2022-12-26T17:45:29;7.38;;;3.83;;
72053;SDS011;59918;51.280;7.950;2022-12-26T17:47:54;4.00;;;3.60;;
72053;SDS011;59918;51.280;7.950;2022-12-26T17:50:21;10.05;;;4.00;;
72053;SDS011;59918;51.280;7.950;2022-12-26T17:52:48;6.78;;;3.28;;
72053;SDS011;59918;51.280;7.950;2022-12-26T17:55:24;6.75;;;2.78;;
72053;SDS011;59918;51.280;7.950;2022-12-26T17:57:54;6.10;;;3.13;;
72053;SDS011;59918;51.280;7.950;2022-12-26T18:00:20;3.10;;;2.80;;
72053;SDS011;59918;51.280;7.950;2022-12-26T18:02:48;3.80;;;3.25;;
72053;SDS011;59918;51.280;7.950;2022-12-26T18:05:18;4.85;;;4.38;;
72053;SDS011;59918;51.280;7.950;2022-12-26T18:07:44;5.97;;;2.80;;
72053;SDS011;59918;51.280;7.950;2022-12-26T18:10:21;11.90;;;4.80;;
72053;SDS011;59918;51.280;7.950;2022-12-26T18:12:53;7.30;;;4.25;;
72053;SDS011;59918;51.280;7.950;2022-12-26T18:15:19;5.85;;;3.80;;
72053;SDS011;59918;51.280;7.950;2022-12-26T18:17:46;9.13;;;4.22;;
72053;SDS011;59918;51.280;7.950;2022-12-26T18:20:19;9.00;;;4.32;;
72053;SDS011;59918;51.280;7.950;2022-12-26T18:22:47;9.20;;;6.57;;
72053;SDS011;59918;51.280;7.950;2022-12-26T18:25:13;6.18;;;4.93;;
72053;SDS011;59918;51.280;7.950;2022-12-26T18:27:46;11.15;;;5.25;;
72053;SDS011;59918;51.280;7.950;2022-12-26T18:30:22;13.73;;;6.05;;
72053;SDS011;59918;51.280;7.950;2022-12-26T18:32:49;8.13;;;6.30;;
72053;SDS011;59918;51.280;7.950;2022-12-26T18:35:16;13.57;;;9.23;;
72053;SDS011;59918;51.280;7.950;2022-12-26T18:37:46;9.55;;;8.07;;
72053;SDS011;59918;51.280;7.950;2022-12-26T18:40:23;13.20;;;6.88;;
72053;SDS011;59918;51.280;7.950;2022-12-26T18:43:01;11.18;;;6.15;;
72053;SDS011;59918;51.280;7.950;2022-12-26T18:45:27;11.77;;;6.65;;
72053;SDS011;59918;51.280;7.950;2022-12-26T18:47:53;8.63;;;6.25;;
72053;SDS011;59918;51.280;7.950;2022-12-26T18:50:22;9.27;;;5.97;;